Time;durP1;ratioP1;P1;durP2;ratioP2;P2;SDS_P1;SDS_P2;PMS_P1;PMS_P2;Temp;Humidity;BMP_temperature;BMP_pressure;BME280_temperature;BME280_humidity;BME280_pressure;Samples;Min_cycle;Max_cycle;Signal;HPM_P1;HPM_P2
2023/05/05 00:00:12;;;;;;;;;8.50;7.00;;;;;8.22;75.36;98903.66;4952430;28;109631;-72
2023/05/05 00:02:39;;;;;;;;;7.50;7.50;;;;;8.19;75.62;98906.72;4956305;28;102247;-76
2023/05/05 00:05:17;;;;;;;;;9.00;8.00;;;;;8.16;75.43;98904.34;4939245;28;102003;-75
2023/05/05 00:08:03;;;;;;;;;4.75;3.25;;;;;8.09;78.11;98898.88;4953567;28;102080;-76
2023/05/05 00:11:00;;;;;;;;;4.25;4.00;;;;;8.03;78.22;98908.47;4949789;28;107887;-75
2023/05/05 00:13:45;;;;;;;;;7.00;4.00;;;;;7.92;80.68;98906.22;4933735;28;102061;-75
2023/05/05 00:16:22;;;;;;;;;4.00;3.00;;;;;7.82;80.03;98908.28;4933998;28;102186;-75
2023/05/05 00:19:02;;;;;;;;;1.25;1.25;;;;;7.72;79.80;98879.88;4936040;28;102279;-75
2023/05/05 00:21:29;;;;;;;;;3.25;2.00;;;;;7.77;79.10;98888.28;4934866;28;104455;-76
2023/05/05 00:23:56;;;;;;;;;1.00;1.00;;;;;7.77;79.50;98894.50;4934406;28;102318;-76
2023/05/05 00:26:23;;;;;;;;;3.00;2.00;;;;;7.72;80.22;98894.19;4931119;28;102396;-76
2023/05/05 00:28:51;;;;;;;;;1.50;1.50;;;;;7.68;79.37;98890.16;4939509;28;103553;-74
2023/05/05 00:31:18;;;;;;;;;1.75;1.00;;;;;7.65;79.49;98885.16;4935836;28;104062;-74
2023/05/05 00:33:45;;;;;;;;;2.75;2.75;;;;;7.50;78.92;98865.38;4936952;28;102135;-77
2023/05/05 00:36:13;;;;;;;;;1.00;0.25;;;;;7.59;79.10;98885.84;4935204;28;102325;-77
2023/05/05 00:38:40;;;;;;;;;2.00;1.75;;;;;7.07;79.53;98807.53;4937515;28;102084;-74
2023/05/05 00:41:07;;;;;;;;;3.75;3.00;;;;;7.53;79.47;98871.22;4936761;28;108478;-76
2023/05/05 00:43:34;;;;;;;;;3.00;3.00;;;;;7.48;77.39;98862.84;4933926;28;102186;-74
2023/05/05 00:46:21;;;;;;;;;3.00;3.00;;;;;7.48;77.15;98864.69;4935509;28;102351;-76
2023/05/05 00:48:48;;;;;;;;;9.00;7.00;;;;;7.43;77.31;98861.72;4936950;28;102059;-75
2023/05/05 00:51:16;;;;;;;;;8.50;7.00;;;;;7.45;76.99;98854.28;4933874;28;103955;-76
2023/05/05 00:53:44;;;;;;;;;8.00;7.00;;;;;7.49;75.74;98863.69;4935332;28;102116;-75
2023/05/05 00:56:16;;;;;;;;;3.25;2.50;;;;;7.17;79.63;98806.31;4928016;28;102472;-73
2023/05/05 00:58:43;;;;;;;;;4.50;4.25;;;;;7.44;79.50;98856.13;4935215;28;102365;-76
2023/05/05 01:01:11;;;;;;;;;5.00;3.75;;;;;7.43;79.95;98865.22;4934029;28;104010;-75
2023/05/05 01:03:40;;;;;;;;;4.25;3.75;;;;;7.38;80.20;98866.78;4934598;28;101853;-76
2023/05/05 01:06:33;;;;;;;;;2.75;2.75;;;;;7.34;80.42;98868.94;4934728;28;102672;-76
2023/05/05 01:09:58;;;;;;;;;4.00;4.00;;;;;7.24;81.92;98875.56;4934529;28;102012;-77
2023/05/05 01:13:15;;;;;;;;;4.75;4.75;;;;;7.19;82.23;98878.78;4897333;28;107435;-75
2023/05/05 01:16:21;;;;;;;;;4.00;2.75;;;;;7.15;81.46;98880.97;4925013;28;102099;-76
2023/05/05 01:18:57;;;;;;;;;3.00;2.00;;;;;7.14;80.73;98879.28;4932940;28;102141;-76
2023/05/05 01:21:27;;;;;;;;;1.00;1.00;;;;;7.11;80.31;98879.59;4934368;28;102394;-76
2023/05/05 01:24:30;;;;;;;;;2.00;1.00;;;;;7.04;80.38;98880.47;4927445;28;103992;-76
2023/05/05 01:27:30;;;;;;;;;3.00;3.00;;;;;6.84;83.53;98873.81;4930260;28;102368;-76
2023/05/05 01:30:16;;;;;;;;;5.25;5.25;;;;;6.68;85.09;98863.91;4918749;28;102165;-76
2023/05/05 01:32:49;;;;;;;;;5.50;5.00;;;;;6.55;85.81;98869.81;4933464;28;102459;-75
2023/05/05 01:35:24;;;;;;;;;7.00;4.00;;;;;6.55;86.24;98863.59;4926685;28;104271;-76
2023/05/05 01:37:57;;;;;;;;;3.00;3.00;;;;;6.54;85.66;98867.28;4930438;28;103133;-75
2023/05/05 01:40:30;;;;;;;;;4.75;4.00;;;;;6.43;86.51;98864.97;4935069;28;102311;-76
2023/05/05 01:43:00;;;;;;;;;4.25;3.25;;;;;6.23;88.26;98846.47;4936046;28;102317;-76
2023/05/05 01:45:31;;;;;;;;;3.00;3.00;;;;;6.27;88.03;98857.72;4927483;28;104318;-76
2023/05/05 01:47:59;;;;;;;;;6.50;5.25;;;;;6.22;88.25;98860.91;4932780;28;102244;-76
2023/05/05 01:50:27;;;;;;;;;6.50;4.00;;;;;6.21;88.15;98861.91;4936169;28;102278;-75
2023/05/05 01:52:56;;;;;;;;;4.25;4.00;;;;;6.26;87.05;98856.88;4935011;28;102485;-76
2023/05/05 01:55:26;;;;;;;;;0.00;0.00;;;;;6.27;86.57;98855.88;4926168;28;104023;-75
2023/05/05 01:57:57;;;;;;;;;2.00;1.00;;;;;6.25;87.19;98857.91;4935184;28;102224;-76
2023/05/05 02:00:26;;;;;;;;;2.00;2.00;;;;;6.13;89.87;98859.22;4935443;28;102159;-77
2023/05/05 02:02:58;;;;;;;;;2.25;2.25;;;;;6.12;89.14;98860.22;4936248;28;102068;-76
2023/05/05 02:05:26;;;;;;;;;1.00;1.00;;;;;6.20;88.32;98852.19;4934639;28;103985;-77
2023/05/05 02:07:57;;;;;;;;;0.00;0.00;;;;;6.24;87.57;98855.38;4936642;28;103444;-75
2023/05/05 02:10:25;;;;;;;;;2.00;1.50;;;;;6.26;88.23;98842.63;4936541;28;102351;-75
2023/05/05 02:12:52;;;;;;;;;3.50;3.00;;;;;6.17;87.08;98833.72;4949577;28;102451;-76
2023/05/05 02:15:22;;;;;;;;;1.75;1.75;;;;;6.33;87.74;98857.06;4935221;28;104258;-77
2023/05/05 02:17:53;;;;;;;;;2.75;2.75;;;;;6.31;88.39;98837.59;4949494;28;102261;-76
2023/05/05 02:20:23;;;;;;;;;3.00;3.00;;;;;6.40;88.18;98850.00;4940748;28;102072;-75
2023/05/05 02:22:50;;;;;;;;;6.50;6.00;;;;;6.39;87.42;98847.50;4956387;28;101981;-76
2023/05/05 02:25:17;;;;;;;;;7.75;7.00;;;;;6.25;87.03;98825.69;4955398;28;104015;-76
2023/05/05 02:27:47;;;;;;;;;3.75;3.75;;;;;6.40;86.82;98849.16;4948177;28;102096;-75
2023/05/05 02:30:18;;;;;;;;;10.25;8.00;;;;;6.39;87.13;98852.88;4954357;28;102353;-76
2023/05/05 02:33:05;;;;;;;;;7.75;7.75;;;;;6.40;86.60;98841.94;4957039;28;102169;-77
2023/05/05 02:35:40;;;;;;;;;9.50;9.00;;;;;6.43;86.48;98848.84;4954789;28;104283;-76
2023/05/05 02:38:16;;;;;;;;;7.25;6.75;;;;;6.52;86.86;98847.81;4952715;28;101973;-76
2023/05/05 02:40:46;;;;;;;;;10.75;7.00;;;;;6.57;85.15;98846.31;4948384;28;102603;-77
2023/05/05 02:43:18;;;;;;;;;4.00;4.00;;;;;6.62;85.10;98837.72;4951279;28;102078;-76
2023/05/05 02:45:45;;;;;;;;;4.75;4.75;;;;;6.62;84.32;98837.72;4946909;28;104190;-76
2023/05/05 02:48:12;;;;;;;;;7.25;6.25;;;;;6.64;82.57;98839.25;4949842;28;102127;-74
2023/05/05 02:50:39;;;;;;;;;9.00;9.00;;;;;6.62;82.60;98841.25;4940244;28;102300;-77
2023/05/05 02:53:06;;;;;;;;;8.25;4.50;;;;;6.47;84.72;98818.78;4953835;28;102280;-76
2023/05/05 02:55:50;;;;;;;;;13.25;9.00;;;;;6.59;82.93;98841.59;4947537;28;104056;-76
2023/05/05 02:58:30;;;;;;;;;8.00;7.25;;;;;6.57;84.61;98840.09;4952525;28;102297;-77
2023/05/05 03:01:25;;;;;;;;;6.50;6.50;;;;;6.51;84.44;98840.78;4947257;28;102122;-76
2023/05/05 03:04:15;;;;;;;;;6.00;5.00;;;;;6.39;84.24;98837.59;4955639;28;101948;-77
2023/05/05 03:06:47;;;;;;;;;8.00;8.00;;;;;6.40;85.07;98839.25;4948809;28;108641;-71
2023/05/05 03:09:28;;;;;;;;;7.00;7.00;;;;;6.39;84.65;98839.44;4954417;28;101960;-75
2023/05/05 03:12:02;;;;;;;;;7.25;7.00;;;;;6.36;84.50;98837.91;4953601;28;102079;-76
2023/05/05 03:14:35;;;;;;;;;7.25;6.25;;;;;6.37;84.74;98838.75;4952766;28;101937;-75
2023/05/05 03:17:04;;;;;;;;;8.50;6.75;;;;;6.38;84.68;98840.44;4948705;28;104012;-77
2023/05/05 03:19:33;;;;;;;;;7.50;7.00;;;;;6.36;83.07;98837.06;4952960;28;102527;-77
2023/05/05 03:22:03;;;;;;;;;11.00;9.00;;;;;6.36;83.54;98837.91;4933622;28;103058;-77
2023/05/05 03:24:30;;;;;;;;;8.00;8.00;;;;;6.35;82.52;98838.91;4954366;28;103184;-75
2023/05/05 03:26:57;;;;;;;;;12.25;9.25;;;;;6.37;83.64;98838.75;4943815;28;104018;-76
2023/05/05 03:29:24;;;;;;;;;7.75;7.00;;;;;6.38;83.44;98848.50;4959089;28;102338;-77
2023/05/05 03:31:51;;;;;;;;;6.75;6.00;;;;;6.43;83.34;98848.84;4958431;28;102630;-77
2023/05/05 03:34:18;;;;;;;;;9.25;7.00;;;;;6.48;83.12;98852.72;4953642;28;101930;-77
2023/05/05 03:36:45;;;;;;;;;6.00;4.25;;;;;6.47;83.45;98850.19;4961139;28;105066;-76
2023/05/05 03:39:12;;;;;;;;;9.75;6.75;;;;;6.54;83.92;98852.00;4958662;28;102104;-77
2023/05/05 03:41:39;;;;;;;;;8.75;7.25;;;;;6.59;84.34;98854.19;4953291;28;102025;-78
2023/05/05 03:44:06;;;;;;;;;7.25;7.25;;;;;6.63;83.84;98856.38;4945477;28;102272;-77
2023/05/05 03:46:33;;;;;;;;;3.75;3.00;;;;;6.71;82.98;98858.19;4959070;28;104208;-76
2023/05/05 03:49:00;;;;;;;;;4.00;3.00;;;;;6.79;83.04;98860.88;4957631;28;102051;-77
2023/05/05 03:51:26;;;;;;;;;4.50;4.50;;;;;6.81;82.75;98852.63;4955304;28;103240;-76
2023/05/05 03:53:54;;;;;;;;;4.75;4.25;;;;;6.83;82.41;98862.22;4958348;28;102519;-75
2023/05/05 03:56:20;;;;;;;;;10.75;7.00;;;;;6.69;84.54;98852.16;4956054;28;104088;-76
2023/05/05 03:58:47;;;;;;;;;5.25;5.00;;;;;6.76;84.22;98855.00;4955080;28;102305;-76
2023/05/05 04:01:14;;;;;;;;;7.75;6.00;;;;;6.80;83.39;98857.16;4954835;28;102129;-76
2023/05/05 04:03:41;;;;;;;;;9.00;8.75;;;;;6.70;85.14;98853.84;4951700;28;103813;-79
2023/05/05 04:06:08;;;;;;;;;14.50;10.00;;;;;6.74;86.74;98841.75;4951939;28;108691;-77
2023/05/05 04:08:35;;;;;;;;;12.50;8.75;;;;;6.93;84.10;98854.81;4947849;28;103439;-77
2023/05/05 04:11:02;;;;;;;;;9.50;6.00;;;;;7.05;82.19;98850.75;4937774;28;102277;-74
2023/05/05 04:13:29;;;;;;;;;9.00;7.75;;;;;7.18;81.34;98858.25;4957484;28;104141;-77
2023/05/05 04:15:58;;;;;;;;;7.25;6.75;;;;;7.31;81.46;98853.16;4956039;28;104075;-76
2023/05/05 04:18:25;;;;;;;;;4.50;4.00;;;;;7.48;81.00;98859.31;4949815;28;102553;-77
2023/05/05 04:20:52;;;;;;;;;7.00;5.00;;;;;7.58;80.23;98862.63;4956828;28;102147;-77
2023/05/05 04:23:19;;;;;;;;;3.00;3.00;;;;;7.64;82.30;98856.56;4957186;28;102010;-77
2023/05/05 04:25:46;;;;;;;;;8.00;4.75;;;;;7.73;81.32;98858.19;4953362;28;104314;-76
2023/05/05 04:28:13;;;;;;;;;3.00;2.00;;;;;7.86;81.51;98861.13;4954710;28;102473;-75
2023/05/05 04:30:40;;;;;;;;;6.50;6.50;;;;;7.78;83.57;98873.81;4958450;28;102054;-77
2023/05/05 04:33:07;;;;;;;;;10.00;8.00;;;;;7.70;81.19;98865.78;4953754;28;101991;-77
2023/05/05 04:35:34;;;;;;;;;11.25;9.00;;;;;7.77;82.77;98877.50;4944848;28;104270;-77
2023/05/05 04:38:01;;;;;;;;;11.50;9.00;;;;;7.71;82.48;98872.81;4950887;28;106701;-76
2023/05/05 04:40:28;;;;;;;;;12.25;10.25;;;;;7.84;80.71;98878.47;4954316;28;102029;-75
2023/05/05 04:42:55;;;;;;;;;7.25;4.00;;;;;8.14;80.21;98880.31;4953295;28;102958;-76
2023/05/05 04:45:22;;;;;;;;;7.50;7.00;;;;;8.59;77.29;98879.50;4954380;28;104042;-76
2023/05/05 04:47:49;;;;;;;;;10.25;8.25;;;;;9.20;76.21;98880.22;4954893;28;102266;-76
2023/05/05 04:50:16;;;;;;;;;7.00;6.00;;;;;9.44;73.27;98879.97;4954528;28;102178;-76
2023/05/05 04:52:43;;;;;;;;;6.50;5.00;;;;;9.86;71.05;98881.97;4953971;28;102454;-76
2023/05/05 04:55:10;;;;;;;;;9.25;7.00;;;;;9.85;69.83;98856.81;4953178;28;104065;-76
2023/05/05 04:57:37;;;;;;;;;10.00;9.25;;;;;10.25;70.48;98887.00;4954519;28;102067;-77
2023/05/05 05:00:05;;;;;;;;;12.75;10.75;;;;;10.88;67.84;98890.69;4952407;28;102117;-77
2023/05/05 05:02:32;;;;;;;;;9.25;9.25;;;;;11.16;65.56;98876.16;4955877;28;102300;-76
2023/05/05 05:04:59;;;;;;;;;12.75;12.00;;;;;11.22;64.92;98888.03;4951341;28;104256;-76
2023/05/05 05:07:26;;;;;;;;;9.50;8.00;;;;;11.26;64.89;98889.31;4954624;28;102484;-76
2023/05/05 05:09:53;;;;;;;;;10.75;9.75;;;;;11.21;65.19;98891.78;4957664;28;102213;-75
2023/05/05 05:12:20;;;;;;;;;10.50;6.00;;;;;11.43;64.80;98896.09;4958908;28;101858;-76
2023/05/05 05:14:47;;;;;;;;;11.00;9.00;;;;;11.47;64.24;98897.38;4955490;28;104205;-77
2023/05/05 05:17:14;;;;;;;;;8.50;6.00;;;;;11.41;65.09;98895.44;4952162;28;102218;-77
2023/05/05 05:19:41;;;;;;;;;10.75;9.50;;;;;11.85;65.96;98902.38;4958949;28;102098;-76
2023/05/05 05:22:08;;;;;;;;;11.75;10.50;;;;;12.20;66.46;98903.16;4958289;28;102281;-75
2023/05/05 05:24:35;;;;;;;;;7.50;6.50;;;;;12.52;63.35;98896.94;4953673;28;103297;-76
2023/05/05 05:27:02;;;;;;;;;7.25;7.00;;;;;12.59;60.97;98896.97;4957264;28;102437;-77
2023/05/05 05:29:29;;;;;;;;;7.50;5.75;;;;;12.51;61.48;98908.84;4955344;28;103301;-76
2023/05/05 05:31:56;;;;;;;;;7.00;6.00;;;;;12.61;62.80;98906.56;4955121;28;102308;-77
2023/05/05 05:34:23;;;;;;;;;7.50;6.50;;;;;12.61;60.24;98908.47;4951135;28;103121;-75
2023/05/05 05:36:50;;;;;;;;;5.50;5.25;;;;;12.74;59.36;98901.13;4954208;28;102030;-77
2023/05/05 05:39:17;;;;;;;;;12.75;9.75;;;;;13.22;62.39;98892.81;4951782;28;102229;-76
2023/05/05 05:41:44;;;;;;;;;10.50;10.00;;;;;13.76;59.13;98895.22;4956591;28;102288;-75
2023/05/05 05:44:11;;;;;;;;;6.00;6.00;;;;;13.74;55.58;98898.13;4957296;28;104173;-76
2023/05/05 05:46:38;;;;;;;;;6.75;6.75;;;;;13.74;55.04;98906.28;4951382;28;102108;-76
2023/05/05 05:49:05;;;;;;;;;4.50;4.00;;;;;14.39;53.07;98901.66;4956678;28;102219;-77
2023/05/05 05:51:32;;;;;;;;;6.25;5.25;;;;;14.65;51.45;98906.09;4957596;28;101947;-75
2023/05/05 05:53:59;;;;;;;;;6.25;6.00;;;;;14.96;50.86;98906.06;4952289;28;103936;-78
2023/05/05 05:56:26;;;;;;;;;7.00;6.75;;;;;15.41;50.69;98909.44;4954784;28;101943;-77
2023/05/05 05:58:52;;;;;;;;;8.00;7.00;;;;;15.48;48.90;98914.84;4938281;28;101972;-75
2023/05/05 06:01:19;;;;;;;;;9.00;9.00;;;;;15.30;47.85;98921.09;4950608;28;101959;-76
2023/05/05 06:03:46;;;;;;;;;3.67;3.33;;;;;15.85;47.14;98913.00;4953079;28;104038;-77
2023/05/05 06:06:13;;;;;;;;;6.00;5.00;;;;;16.20;46.74;98921.41;4958476;28;103202;-76
2023/05/05 06:08:40;;;;;;;;;6.00;5.00;;;;;16.23;45.99;98915.47;4962420;28;102142;-78
2023/05/05 06:11:07;;;;;;;;;6.33;6.33;;;;;16.76;48.87;98916.41;4954557;28;102387;-75
2023/05/05 06:13:34;;;;;;;;;5.00;5.00;;;;;16.81;44.92;98878.31;4952908;28;104037;-77
2023/05/05 06:16:01;;;;;;;;;7.00;6.67;;;;;17.09;46.18;98915.06;4957203;28;102011;-77
2023/05/05 06:18:28;;;;;;;;;5.33;5.33;;;;;16.79;45.95;98909.69;4955432;28;102118;-76
2023/05/05 06:20:56;;;;;;;;;7.00;6.33;;;;;16.72;45.89;98912.50;4956391;28;102034;-78
2023/05/05 06:23:23;;;;;;;;;7.00;7.00;;;;;17.61;42.93;98908.72;4962606;28;104361;-77
2023/05/05 06:25:49;;;;;;;;;9.67;6.33;;;;;16.89;44.41;98910.75;4969761;28;101823;-76
2023/05/05 06:28:17;;;;;;;;;5.67;5.33;;;;;17.09;47.18;98910.44;4971207;28;101511;-77
2023/05/05 06:30:44;;;;;;;;;7.00;7.00;;;;;18.02;45.90;98909.59;4948693;28;102003;-74
2023/05/05 06:33:11;;;;;;;;;9.67;8.67;;;;;18.98;43.42;98904.13;4951554;28;103952;-76
2023/05/05 06:35:38;;;;;;;;;7.00;7.00;;;;;18.35;41.44;98906.19;4958860;28;102080;-77
2023/05/05 06:38:05;;;;;;;;;9.67;8.00;;;;;17.81;42.96;98900.97;4953783;28;101958;-78
2023/05/05 06:40:32;;;;;;;;;8.00;8.00;;;;;18.50;43.80;98904.59;4951634;28;106927;-75
2023/05/05 06:42:59;;;;;;;;;9.00;8.00;;;;;19.02;44.00;98907.19;4954370;28;104153;-77
2023/05/05 06:45:26;;;;;;;;;7.00;7.00;;;;;18.90;41.06;98900.97;4958951;28;102571;-77
2023/05/05 06:47:53;;;;;;;;;6.67;5.67;;;;;19.57;40.84;98908.13;4956683;28;102073;-76
2023/05/05 06:50:20;;;;;;;;;7.33;7.00;;;;;19.84;38.90;98896.44;4936118;28;102299;-75
2023/05/05 06:52:47;;;;;;;;;4.33;4.33;;;;;19.86;38.05;98888.75;4947935;28;104023;-77
2023/05/05 06:55:14;;;;;;;;;8.33;7.00;;;;;20.08;40.57;98892.38;4956100;28;101943;-76
2023/05/05 06:57:41;;;;;;;;;4.00;4.00;;;;;20.49;38.13;98899.19;4954279;28;102112;-77
2023/05/05 07:00:10;;;;;;;;;7.00;6.00;;;;;20.67;39.59;98896.09;4960440;28;102129;-77
2023/05/05 07:02:37;;;;;;;;;8.67;8.67;;;;;19.32;38.72;98893.97;4953333;28;104047;-77
2023/05/05 07:05:04;;;;;;;;;4.67;4.67;;;;;19.29;39.18;98891.75;4955252;28;101968;-76
2023/05/05 07:07:31;;;;;;;;;2.33;2.33;;;;;19.83;38.39;98892.03;4957730;28;102346;-75
2023/05/05 07:09:58;;;;;;;;;2.33;2.33;;;;;20.43;39.00;98897.50;4961509;28;102245;-77
2023/05/05 07:12:29;;;;;;;;;4.00;4.00;;;;;20.60;35.46;98897.38;4952975;28;104003;-77
2023/05/05 07:14:56;;;;;;;;;3.00;3.00;;;;;20.47;37.15;98902.22;4960287;28;102103;-77
2023/05/05 07:17:23;;;;;;;;;2.00;1.67;;;;;20.66;35.97;98891.69;4958545;28;102318;-77
2023/05/05 07:19:50;;;;;;;;;3.67;3.00;;;;;19.52;36.70;98888.84;4957733;28;102203;-77
2023/05/05 07:22:17;;;;;;;;;4.67;3.67;;;;;19.17;40.24;98889.09;4959990;28;105797;-77
2023/05/05 07:24:44;;;;;;;;;4.00;4.00;;;;;19.73;37.95;98878.16;4968242;28;102304;-77
2023/05/05 07:27:11;;;;;;;;;2.00;2.00;;;;;20.18;37.09;98877.91;4972216;28;102825;-76
2023/05/05 07:29:38;;;;;;;;;3.00;3.00;;;;;20.20;37.09;98873.84;4971599;28;101844;-75
2023/05/05 07:32:05;;;;;;;;;2.00;2.00;;;;;20.44;36.70;98886.22;4964283;28;103238;-76
2023/05/05 07:34:33;;;;;;;;;4.00;4.00;;;;;20.01;38.97;98883.47;4966739;28;101953;-78
2023/05/05 07:37:00;;;;;;;;;2.00;2.00;;;;;20.14;38.98;98871.28;4965819;28;102425;-79
2023/05/05 07:39:27;;;;;;;;;1.00;1.00;;;;;19.99;37.55;98878.22;4972769;28;102030;-75
2023/05/05 07:41:54;;;;;;;;;1.00;1.00;;;;;19.54;36.49;98864.72;4950607;28;103330;-74
2023/05/05 07:44:21;;;;;;;;;1.33;1.00;;;;;19.80;37.13;98873.31;4954284;28;101669;-77
2023/05/05 07:46:48;;;;;;;;;1.00;1.00;;;;;19.96;38.95;98886.16;4959414;28;103267;-76
2023/05/05 07:49:15;;;;;;;;;1.67;1.67;;;;;18.95;37.11;98881.88;4969502;28;102125;-75
2023/05/05 07:51:43;;;;;;;;;3.00;3.00;;;;;19.01;38.10;98878.94;4974444;28;103448;-74
2023/05/05 07:54:11;;;;;;;;;1.67;0.67;;;;;19.22;38.10;98877.38;4968131;28;102750;-74
2023/05/05 07:56:38;;;;;;;;;3.00;1.67;;;;;19.13;36.58;98876.16;4971251;28;102002;-75
2023/05/05 07:59:05;;;;;;;;;4.00;4.00;;;;;18.30;38.92;98876.81;4972642;28;101592;-74
2023/05/05 08:01:32;;;;;;;;;3.33;3.00;;;;;18.59;39.08;98873.03;4967988;28;103382;-74
2023/05/05 08:03:59;;;;;;;;;0.33;0.33;;;;;18.68;37.50;98877.03;4970177;28;102695;-76
2023/05/05 08:06:27;;;;;;;;;2.00;2.00;;;;;18.85;36.49;98877.03;4968312;28;101696;-74
2023/05/05 08:08:54;;;;;;;;;1.33;1.33;;;;;19.02;38.15;98871.56;4974668;28;101914;-74
2023/05/05 08:11:22;;;;;;;;;3.33;3.00;;;;;18.79;36.77;98874.44;4969199;28;103111;-74
2023/05/05 08:13:48;;;;;;;;;2.33;2.33;;;;;19.04;36.07;98872.16;4967543;28;102834;-75
2023/05/05 08:16:15;;;;;;;;;3.00;3.00;;;;;18.75;37.33;98870.53;4964234;28;101752;-74
2023/05/05 08:18:43;;;;;;;;;3.00;3.00;;;;;19.06;38.37;98873.56;4976253;28;105597;-76
2023/05/05 08:21:10;;;;;;;;;3.33;1.00;;;;;19.23;36.64;98868.06;4969552;28;107647;-75
2023/05/05 08:23:38;;;;;;;;;3.00;2.00;;;;;19.12;36.93;98871.72;4970668;28;101859;-75
2023/05/05 08:26:06;;;;;;;;;2.67;2.00;;;;;18.97;36.82;98868.72;4967239;28;101672;-75
2023/05/05 08:28:36;;;;;;;;;1.33;1.00;;;;;19.25;36.97;98874.13;4974964;28;104825;-73
2023/05/05 08:31:04;;;;;;;;;4.00;2.00;;;;;18.97;36.25;98868.72;4953594;28;103304;-75
2023/05/05 08:33:31;;;;;;;;;5.00;4.00;;;;;18.72;36.62;98877.34;4968788;28;102598;-74
2023/05/05 08:35:58;;;;;;;;;3.00;2.00;;;;;18.61;36.23;98878.22;4952195;28;101746;-75
2023/05/05 08:38:26;;;;;;;;;3.00;2.67;;;;;19.04;36.80;98864.78;4971855;28;101735;-75
2023/05/05 08:40:52;;;;;;;;;1.67;1.67;;;;;19.49;36.11;98872.91;4971825;28;103493;-74
2023/05/05 08:43:22;;;;;;;;;0.67;0.67;;;;;19.73;34.71;98868.00;4965966;28;101874;-74
2023/05/05 08:45:50;;;;;;;;;0.67;0.67;;;;;19.79;37.17;98871.66;4968380;28;101866;-75
2023/05/05 08:48:21;;;;;;;;;2.67;1.67;;;;;19.82;35.58;98871.97;4967949;28;102819;-74
2023/05/05 08:50:56;;;;;;;;;2.67;2.67;;;;;19.64;37.35;98869.53;4942346;28;103721;-75
2023/05/05 08:53:56;;;;;;;;;3.33;2.33;;;;;19.83;34.80;98867.31;4963769;28;101893;-75
2023/05/05 08:56:26;;;;;;;;;1.33;1.00;;;;;19.91;36.81;98867.72;4965226;28;101919;-73
2023/05/05 08:58:55;;;;;;;;;2.67;2.67;;;;;19.58;36.40;98857.69;4968428;28;101582;-74
2023/05/05 09:01:22;;;;;;;;;2.00;2.00;;;;;19.87;34.70;98862.97;4953052;28;103490;-74
2023/05/05 09:03:50;;;;;;;;;1.00;1.00;;;;;20.17;35.12;98857.06;4968668;28;102026;-74
2023/05/05 09:06:22;;;;;;;;;1.67;1.67;;;;;19.86;33.91;98864.91;4958645;28;101887;-75
2023/05/05 09:08:49;;;;;;;;;4.00;3.00;;;;;19.66;34.49;98866.53;4951602;28;101917;-73
2023/05/05 09:11:16;;;;;;;;;2.33;2.33;;;;;19.82;34.71;98860.16;4965874;28;103361;-75
2023/05/05 09:13:43;;;;;;;;;2.33;1.67;;;;;19.35;35.03;98844.13;4968467;28;102035;-76
2023/05/05 09:16:28;;;;;;;;;3.33;3.00;;;;;19.44;33.94;98847.31;4971839;28;101651;-74
2023/05/05 09:19:02;;;;;;;;;1.67;1.67;;;;;19.50;33.92;98855.34;4970072;28;101718;-74
2023/05/05 09:21:29;;;;;;;;;2.00;2.00;;;;;19.60;34.15;98851.91;4962229;28;103472;-75
2023/05/05 09:24:10;;;;;;;;;1.67;1.67;;;;;19.47;33.40;98844.06;4967041;28;101760;-74
2023/05/05 09:26:40;;;;;;;;;4.00;2.00;;;;;19.57;34.39;98856.00;4962642;28;101860;-75
2023/05/05 09:29:07;;;;;;;;;0.67;0.67;;;;;19.49;35.06;98856.44;4968947;28;101748;-73
2023/05/05 09:31:36;;;;;;;;;1.00;1.00;;;;;19.56;34.51;98862.56;4968724;28;103507;-75
2023/05/05 09:34:14;;;;;;;;;2.33;2.33;;;;;19.64;35.20;98852.22;4971001;28;101924;-72
2023/05/05 09:36:42;;;;;;;;;2.00;2.00;;;;;19.65;34.91;98853.91;4965177;28;101733;-74
2023/05/05 09:39:09;;;;;;;;;2.67;2.67;;;;;19.86;34.65;98853.91;4971122;28;101956;-74
2023/05/05 09:41:37;;;;;;;;;2.33;2.33;;;;;19.68;34.04;98864.38;4962432;28;103271;-74
2023/05/05 09:44:05;;;;;;;;;1.67;1.33;;;;;19.85;33.40;98860.50;4972108;28;101543;-75
2023/05/05 09:46:32;;;;;;;;;3.00;3.00;;;;;19.80;35.04;98856.88;4966925;28;102726;-74
2023/05/05 09:49:17;;;;;;;;;3.33;3.00;;;;;19.75;35.47;98854.06;4967223;28;102085;-75
2023/05/05 09:51:44;;;;;;;;;5.00;3.67;;;;;19.46;35.15;98850.63;4960172;28;107447;-75
2023/05/05 09:54:21;;;;;;;;;3.00;3.00;;;;;19.70;33.89;98851.22;4965551;28;101821;-74
2023/05/05 09:56:50;;;;;;;;;2.00;2.00;;;;;19.98;34.90;98856.56;4966349;28;101954;-75
2023/05/05 09:59:18;;;;;;;;;1.67;1.67;;;;;20.16;32.76;98853.47;4970269;28;102022;-73
2023/05/05 10:01:45;;;;;;;;;4.33;3.67;;;;;19.50;35.01;98858.09;4962780;28;103365;-73
2023/05/05 10:04:29;;;;;;;;;1.67;1.67;;;;;19.97;35.20;98852.97;4971332;28;101849;-74
2023/05/05 10:06:57;;;;;;;;;2.67;2.67;;;;;20.00;33.79;98846.97;4967375;28;102437;-75
2023/05/05 10:09:25;;;;;;;;;1.67;1.67;;;;;20.36;33.67;98850.97;4961558;28;104364;-74
2023/05/05 10:11:56;;;;;;;;;2.33;1.33;;;;;20.75;34.00;98843.44;4940238;28;103381;-74
2023/05/05 10:14:24;;;;;;;;;5.00;5.00;;;;;19.96;32.62;98806.56;4928149;28;101701;-74
2023/05/05 10:16:53;;;;;;;;;0.00;0.00;;;;;20.48;32.68;98848.09;4930198;28;101764;-75
2023/05/05 10:19:22;;;;;;;;;2.00;2.00;;;;;20.53;34.86;98833.59;4929380;28;101543;-75
2023/05/05 10:21:52;;;;;;;;;2.00;2.00;;;;;20.83;33.26;98855.84;4928721;28;103447;-74
2023/05/05 10:24:29;;;;;;;;;4.33;3.33;;;;;19.87;32.63;98852.00;4922134;28;101788;-74
2023/05/05 10:26:58;;;;;;;;;4.00;3.33;;;;;20.00;35.58;98841.47;4927967;28;101560;-74
2023/05/05 10:29:34;;;;;;;;;3.33;2.00;;;;;20.24;35.26;98858.50;4928140;28;101897;-75
2023/05/05 10:32:16;;;;;;;;;2.00;2.00;;;;;20.38;32.01;98847.97;4925945;28;104899;-74
2023/05/05 10:35:06;;;;;;;;;3.00;3.00;;;;;20.10;31.64;98842.69;4929764;28;101694;-74
2023/05/05 10:37:36;;;;;;;;;4.67;4.33;;;;;19.55;32.01;98838.13;4931692;28;101795;-74
2023/05/05 10:40:04;;;;;;;;;5.00;4.00;;;;;19.65;35.17;98843.75;4930171;28;102070;-75
2023/05/05 10:42:32;;;;;;;;;3.00;3.00;;;;;19.94;36.40;98837.03;4927196;28;104700;-74
2023/05/05 10:44:59;;;;;;;;;3.67;3.67;;;;;19.98;33.87;98812.63;4926975;28;102813;-75
2023/05/05 10:47:27;;;;;;;;;2.33;2.33;;;;;20.48;35.13;98837.94;4930457;28;102293;-74
2023/05/05 10:50:15;;;;;;;;;3.00;1.00;;;;;20.64;34.04;98829.84;4935305;28;104811;-75
2023/05/05 10:52:54;;;;;;;;;1.33;1.33;;;;;20.67;33.23;98832.09;4933706;28;107722;-73
2023/05/05 10:55:32;;;;;;;;;1.33;1.00;;;;;20.41;32.54;98814.50;4932608;28;101850;-74
2023/05/05 10:57:59;;;;;;;;;1.67;1.67;;;;;20.53;35.16;98834.41;4931418;28;101902;-74
2023/05/05 11:00:38;;;;;;;;;1.33;1.00;;;;;20.63;35.30;98828.16;4932967;28;101832;-73
